Time;durP1;ratioP1;P1;durP2;ratioP2;P2;SDS_P1;SDS_P2;PMS_P1;PMS_P2;Temp;Humidity;BMP_temperature;BMP_pressure;BME280_temperature;BME280_humidity;BME280_pressure;Samples;Min_cycle;Max_cycle;Signal;HPM_P1;HPM_P2
2022/09/19 00:01:58;;;;;;;;;3.75;3.75;;;;;15.46;49.44;101796.81;5009020;28;45480;-82
2022/09/19 00:04:31;;;;;;;;;4.75;4.00;;;;;15.47;49.19;101803.84;5007243;28;46633;-82
2022/09/19 00:06:58;;;;;;;;;3.00;3.00;;;;;15.39;49.27;101790.63;5005825;28;45206;-82
2022/09/19 00:09:29;;;;;;;;;5.75;4.00;;;;;15.41;49.28;101808.31;5022308;28;45399;-81
2022/09/19 00:11:55;;;;;;;;;4.00;3.00;;;;;15.37;49.64;101789.75;5006244;28;45493;-83
2022/09/19 00:14:25;;;;;;;;;4.00;3.00;;;;;15.38;49.23;101794.19;5007181;28;46116;-83
2022/09/19 00:16:58;;;;;;;;;3.00;3.00;;;;;15.38;49.21;101804.81;5006782;28;45412;-82
2022/09/19 00:19:24;;;;;;;;;5.00;5.00;;;;;15.38;49.68;101797.72;5007520;28;45421;-83
2022/09/19 00:21:54;;;;;;;;;6.00;6.00;;;;;15.35;49.75;101802.19;5005877;28;44813;-83
2022/09/19 00:27:05;;;;;;;;;3.00;3.00;;;;;15.30;49.81;101801.31;5007371;28;45239;-83
2022/09/19 00:29:36;;;;;;;;;4.00;4.00;;;;;15.29;49.87;101796.88;5006075;28;45321;-83
2022/09/19 00:32:07;;;;;;;;;3.75;3.00;;;;;15.28;50.22;101803.97;5006701;28;46007;-82
2022/09/19 00:34:32;;;;;;;;;4.00;3.25;;;;;15.26;50.28;101796.91;5002865;28;47362;-83
2022/09/19 00:36:58;;;;;;;;;4.00;4.00;;;;;15.27;49.89;101802.22;5020998;28;45292;-83
2022/09/19 00:39:24;;;;;;;;;5.50;5.50;;;;;15.24;50.35;101804.03;5005042;28;45479;-83
2022/09/19 00:41:50;;;;;;;;;4.00;3.25;;;;;15.26;50.21;101799.56;5023096;28;45351;-82
2022/09/19 00:44:21;;;;;;;;;3.75;3.75;;;;;15.25;50.30;101808.44;5022589;28;46111;-82
2022/09/19 00:46:49;;;;;;;;;3.25;3.25;;;;;15.21;50.21;101807.56;5004627;28;45384;-82
2022/09/19 00:49:19;;;;;;;;;4.25;3.00;;;;;15.18;50.31;101804.91;5009408;28;45376;-82
2022/09/19 00:51:49;;;;;;;;;6.00;4.25;;;;;15.13;50.25;101810.28;4994952;28;45537;-80
2022/09/19 00:54:21;;;;;;;;;5.25;4.75;;;;;15.12;50.71;101797.00;5000330;28;47916;-82
2022/09/19 00:56:50;;;;;;;;;7.00;7.00;;;;;15.07;50.83;101804.97;5004569;28;45248;-83
2022/09/19 00:59:18;;;;;;;;;4.00;4.00;;;;;15.02;50.74;101805.88;5021951;28;45455;-82
2022/09/19 01:01:44;;;;;;;;;3.75;3.75;;;;;15.02;51.18;101811.19;5021404;28;45574;-82
2022/09/19 01:04:19;;;;;;;;;5.00;5.00;;;;;14.99;51.03;101817.41;5004393;28;47267;-82
2022/09/19 01:06:50;;;;;;;;;6.00;5.00;;;;;14.96;50.92;101815.63;5003818;28;45426;-84
2022/09/19 01:09:41;;;;;;;;;5.25;4.50;;;;;14.95;51.17;101820.97;5004555;28;45357;-83
2022/09/19 01:12:25;;;;;;;;;6.00;5.00;;;;;14.92;51.28;101819.22;5022547;28;45412;-82
2022/09/19 01:15:09;;;;;;;;;6.75;5.75;;;;;14.88;51.26;101813.91;5022178;28;45293;-82
2022/09/19 01:17:53;;;;;;;;;5.25;4.25;;;;;14.84;51.33;101815.72;5015563;28;45272;-81
2022/09/19 01:20:37;;;;;;;;;7.75;6.00;;;;;14.84;51.38;101812.19;5028381;28;45541;-83
2022/09/19 01:23:27;;;;;;;;;5.75;5.00;;;;;14.81;51.44;101823.69;5022164;28;45431;-83
2022/09/19 01:26:22;;;;;;;;;3.50;3.50;;;;;14.76;51.85;101812.22;5032030;28;45990;-82
2022/09/19 01:28:56;;;;;;;;;4.00;4.00;;;;;14.70;51.94;101815.78;5004063;28;45342;-81
2022/09/19 01:31:27;;;;;;;;;4.25;4.25;;;;;14.69;52.00;101813.09;5022212;28;45339;-82
2022/09/19 01:34:05;;;;;;;;;3.50;3.50;;;;;14.68;52.32;101819.31;5017955;28;45436;-82
2022/09/19 01:36:37;;;;;;;;;4.50;4.50;;;;;14.65;51.88;101827.25;5004097;28;47313;-81
2022/09/19 01:39:06;;;;;;;;;4.00;4.00;;;;;14.64;52.53;101821.06;5003537;28;45330;-83
2022/09/19 01:41:32;;;;;;;;;5.25;5.25;;;;;14.61;52.40;101817.56;5005156;28;45357;-83
2022/09/19 01:44:05;;;;;;;;;6.25;6.25;;;;;14.60;52.69;101823.75;5005205;28;45588;-83
2022/09/19 01:46:50;;;;;;;;;4.00;3.75;;;;;14.58;52.41;101818.44;5005179;28;47368;-83
2022/09/19 01:49:42;;;;;;;;;5.75;5.75;;;;;14.53;52.85;101821.09;5024236;28;45792;-83
2022/09/19 01:52:35;;;;;;;;;4.00;4.00;;;;;14.52;52.39;101821.09;4999781;28;45350;-83
2022/09/19 01:55:18;;;;;;;;;5.50;5.50;;;;;14.49;52.96;101824.63;5005113;28;45464;-83
2022/09/19 01:58:04;;;;;;;;;5.25;4.75;;;;;14.47;52.57;101822.88;5006261;28;47119;-83
2022/09/19 02:00:30;;;;;;;;;4.00;4.00;;;;;14.46;52.72;101822.00;5017659;28;45484;-83
2022/09/19 02:03:17;;;;;;;;;4.00;4.00;;;;;14.46;53.28;101824.63;5005200;28;45475;-83
2022/09/19 02:05:54;;;;;;;;;6.75;6.00;;;;;14.46;52.95;101821.06;5022660;28;45343;-83
2022/09/19 02:08:32;;;;;;;;;5.50;5.50;;;;;14.45;52.78;101824.63;5015922;28;45545;-82
2022/09/19 02:11:04;;;;;;;;;5.50;4.00;;;;;14.45;53.20;101829.94;5023290;28;45527;-82
2022/09/19 02:13:35;;;;;;;;;3.75;3.75;;;;;14.45;53.03;101824.63;5021948;28;45511;-82
2022/09/19 02:16:07;;;;;;;;;5.00;5.00;;;;;14.42;53.33;101825.53;5004951;28;46091;-82
2022/09/19 02:19:18;;;;;;;;;7.25;6.50;;;;;14.43;53.57;101832.56;5006006;28;48395;-81
2022/09/19 02:21:52;;;;;;;;;4.00;4.00;;;;;14.40;53.33;101832.56;5005759;28;46175;-82
2022/09/19 02:24:22;;;;;;;;;6.00;4.75;;;;;14.38;53.16;101829.06;5017670;28;45273;-83
2022/09/19 02:26:51;;;;;;;;;5.50;5.50;;;;;14.29;53.62;101826.44;5006975;28;45551;-82
2022/09/19 02:29:24;;;;;;;;;4.25;4.25;;;;;14.27;53.93;101829.09;5008204;28;45986;-82
2022/09/19 02:31:50;;;;;;;;;4.75;4.75;;;;;14.24;53.43;101833.50;5025772;28;45260;-82
2022/09/19 02:34:19;;;;;;;;;3.75;3.75;;;;;14.20;54.08;101829.09;5027083;28;45282;-82
2022/09/19 02:37:04;;;;;;;;;5.00;5.00;;;;;14.09;53.97;101821.16;5005855;28;45921;-83
2022/09/19 02:39:48;;;;;;;;;5.00;4.00;;;;;14.06;54.14;101831.72;5006194;28;47121;-83
2022/09/19 02:42:30;;;;;;;;;7.25;6.25;;;;;14.02;54.49;101830.88;5032458;28;45269;-83
2022/09/19 02:45:27;;;;;;;;;5.00;4.00;;;;;13.98;54.67;101829.13;5027571;28;45392;-82
2022/09/19 02:48:03;;;;;;;;;4.75;4.75;;;;;13.96;54.74;101827.34;5008280;28;45645;-83
2022/09/19 02:50:41;;;;;;;;;5.75;5.25;;;;;13.92;54.66;101833.50;5026636;28;45283;-82
2022/09/19 02:53:13;;;;;;;;;7.00;6.00;;;;;13.89;54.85;101834.41;5014829;28;45271;-83
2022/09/19 02:55:46;;;;;;;;;4.00;4.00;;;;;13.82;55.30;101828.22;5026520;28;45475;-81
2022/09/19 02:58:15;;;;;;;;;5.75;5.75;;;;;13.84;55.21;101847.63;5007788;28;45523;-82
2022/09/19 03:00:48;;;;;;;;;5.75;5.75;;;;;13.80;55.37;101837.06;5026966;28;45229;-82
2022/09/19 03:06:07;;;;;;;;;5.50;5.50;;;;;13.75;55.32;101850.28;5026413;28;45497;-82
2022/09/19 03:08:36;;;;;;;;;6.75;5.75;;;;;13.71;55.86;101845.84;5025912;28;45368;-82
2022/09/19 03:11:08;;;;;;;;;6.00;6.00;;;;;13.65;55.91;101841.44;5008539;28;45414;-83
2022/09/19 03:13:36;;;;;;;;;5.00;4.00;;;;;13.65;56.12;101845.84;5008709;28;45941;-83
2022/09/19 03:16:09;;;;;;;;;6.25;6.25;;;;;13.61;55.95;101841.44;5026679;28;45509;-83
2022/09/19 03:18:37;;;;;;;;;4.75;4.00;;;;;13.61;56.18;101839.69;5026844;28;45224;-82
2022/09/19 03:21:08;;;;;;;;;5.00;4.00;;;;;13.59;56.38;101840.56;5015064;28;45412;-83
2022/09/19 03:23:36;;;;;;;;;5.25;3.50;;;;;13.58;56.40;101850.25;5024561;28;45290;-81
2022/09/19 03:26:02;;;;;;;;;6.50;3.75;;;;;13.51;56.39;101837.91;5007179;28;45448;-83
2022/09/19 03:28:28;;;;;;;;;4.00;4.00;;;;;13.52;56.37;101844.06;5024563;28;45490;-82
2022/09/19 03:30:59;;;;;;;;;5.00;5.00;;;;;13.51;56.73;101840.53;5024353;28;45431;-82
2022/09/19 03:33:25;;;;;;;;;5.75;4.25;;;;;13.53;56.50;101846.72;5007057;28;45349;-82
2022/09/19 03:35:50;;;;;;;;;6.50;6.50;;;;;13.50;56.57;101844.06;5025601;28;45511;-82
2022/09/19 03:38:16;;;;;;;;;5.75;5.75;;;;;13.49;56.76;101847.59;5007812;28;45624;-82
2022/09/19 03:40:41;;;;;;;;;5.25;4.50;;;;;13.38;56.95;101836.97;5018545;28;45281;-82
2022/09/19 03:43:06;;;;;;;;;6.75;5.50;;;;;13.34;56.72;101835.22;5025933;28;45249;-82
2022/09/19 03:45:32;;;;;;;;;5.25;4.25;;;;;13.37;57.19;101858.16;5006707;28;45422;-82
2022/09/19 03:47:57;;;;;;;;;5.00;5.00;;;;;13.31;57.11;101859.03;5008080;28;45308;-82
2022/09/19 03:50:23;;;;;;;;;4.50;4.50;;;;;13.22;57.37;101859.81;5008302;28;47106;-82
2022/09/19 03:52:49;;;;;;;;;7.00;6.00;;;;;13.24;57.67;101863.38;5008386;28;45853;-82
2022/09/19 03:55:15;;;;;;;;;7.50;7.25;;;;;13.19;57.69;101859.81;5008376;28;45422;-82
2022/09/19 03:57:41;;;;;;;;;6.00;4.50;;;;;13.17;57.60;101858.03;5008351;28;45419;-82
2022/09/19 04:00:08;;;;;;;;;7.75;6.75;;;;;13.17;57.89;101861.56;5007358;28;47983;-82
2022/09/19 04:02:35;;;;;;;;;7.25;7.25;;;;;13.13;57.60;101856.28;5025734;28;45254;-82
2022/09/19 04:05:02;;;;;;;;;6.00;5.75;;;;;13.08;57.88;101860.66;5007823;28;45416;-82
2022/09/19 04:07:28;;;;;;;;;9.00;5.75;;;;;13.08;57.92;101864.19;5025427;28;45488;-82
2022/09/19 04:09:56;;;;;;;;;6.25;6.25;;;;;13.03;58.11;101865.94;5025828;28;45525;-83
2022/09/19 04:12:23;;;;;;;;;6.50;6.25;;;;;13.00;58.09;101869.44;5025914;28;45317;-83
2022/09/19 04:14:48;;;;;;;;;6.00;6.00;;;;;12.97;58.33;101871.19;5034565;28;45248;-82
2022/09/19 04:17:14;;;;;;;;;4.25;4.25;;;;;12.96;58.10;101877.34;5012836;28;45562;-80
2022/09/19 04:19:42;;;;;;;;;7.50;6.25;;;;;12.86;58.63;101860.56;5025831;28;46237;-82
2022/09/19 04:22:08;;;;;;;;;9.00;8.00;;;;;12.96;58.78;101879.97;5007041;28;45234;-82
2022/09/19 04:24:33;;;;;;;;;6.00;5.50;;;;;12.91;58.92;101873.78;5007652;28;45228;-81
2022/09/19 04:26:59;;;;;;;;;7.50;6.50;;;;;12.92;58.83;101878.22;5025628;28;45190;-82
2022/09/19 04:29:27;;;;;;;;;8.00;5.00;;;;;12.89;58.84;101879.09;5025635;28;45446;-82
2022/09/19 04:31:53;;;;;;;;;6.00;6.00;;;;;12.86;58.75;101880.84;5025267;28;45450;-83
2022/09/19 04:34:18;;;;;;;;;7.00;7.00;;;;;12.84;59.00;101872.88;5023789;28;45261;-82
2022/09/19 04:36:44;;;;;;;;;6.50;6.50;;;;;12.86;58.92;101880.84;5024173;28;45571;-82
2022/09/19 04:39:10;;;;;;;;;5.75;5.75;;;;;12.81;58.88;101872.88;5004944;28;47717;-83
2022/09/19 04:41:37;;;;;;;;;6.50;5.50;;;;;12.82;59.19;101879.03;5023990;28;45271;-81
2022/09/19 04:44:05;;;;;;;;;8.75;8.75;;;;;12.76;59.19;101874.59;5025015;28;45153;-82
2022/09/19 04:46:32;;;;;;;;;8.25;6.00;;;;;12.75;59.35;101886.03;5006390;28;45820;-82
2022/09/19 04:48:59;;;;;;;;;8.75;8.75;;;;;12.70;59.29;101883.38;5024918;28;45281;-82
2022/09/19 04:51:26;;;;;;;;;6.50;6.50;;;;;12.67;59.74;101880.72;5006806;28;45234;-82
2022/09/19 04:53:51;;;;;;;;;7.00;7.00;;;;;12.66;59.47;101888.63;5025151;28;45158;-82
2022/09/19 04:56:18;;;;;;;;;5.75;5.00;;;;;12.62;59.50;101892.16;5025057;28;45170;-82
2022/09/19 04:58:45;;;;;;;;;6.75;6.00;;;;;12.58;59.88;101886.81;5006450;28;47152;-81
2022/09/19 05:01:13;;;;;;;;;7.50;7.50;;;;;12.55;59.86;101880.66;5024132;28;45324;-80
2022/09/19 05:03:43;;;;;;;;;6.50;6.50;;;;;12.54;59.87;101884.16;5007448;28;45429;-82
2022/09/19 05:06:09;;;;;;;;;6.00;5.75;;;;;12.54;60.24;101881.53;5002568;28;45656;-82
2022/09/19 05:08:34;;;;;;;;;6.50;6.00;;;;;12.55;60.06;101889.44;5020529;28;46628;-82
2022/09/19 05:11:03;;;;;;;;;6.00;6.00;;;;;12.51;60.21;101885.03;5002504;28;45246;-82
2022/09/19 05:13:31;;;;;;;;;6.25;6.25;;;;;12.51;60.13;101884.13;5020728;28;45348;-82
2022/09/19 05:15:57;;;;;;;;;5.75;5.75;;;;;12.46;60.33;101878.84;5020081;28;45447;-83
2022/09/19 05:18:24;;;;;;;;;7.50;5.25;;;;;12.51;60.36;101892.97;5020371;28;46638;-82
2022/09/19 05:20:52;;;;;;;;;7.00;5.75;;;;;12.53;60.26;101896.47;5019998;28;45513;-81
2022/09/19 05:23:17;;;;;;;;;6.75;6.00;;;;;12.54;60.46;101897.38;5002778;28;45242;-82
2022/09/19 05:25:43;;;;;;;;;10.00;7.00;;;;;12.55;60.15;101891.22;5024515;28;45318;-82
2022/09/19 05:28:09;;;;;;;;;8.00;5.75;;;;;12.55;60.29;101897.38;5024014;28;45298;-81
2022/09/19 05:30:49;;;;;;;;;10.00;7.75;;;;;12.56;60.39;101891.22;5024580;28;45288;-82
2022/09/19 05:33:20;;;;;;;;;6.00;6.00;;;;;12.57;60.34;101906.19;5008124;28;45364;-82
2022/09/19 05:35:45;;;;;;;;;6.00;6.00;;;;;12.54;60.53;101905.31;5021211;28;45234;-82
2022/09/19 05:38:10;;;;;;;;;8.25;6.00;;;;;12.51;60.57;101905.25;5001872;28;47462;-82
2022/09/19 05:40:36;;;;;;;;;8.00;8.00;;;;;12.50;60.47;101904.38;5002142;28;45309;-82
2022/09/19 05:43:03;;;;;;;;;7.00;7.00;;;;;12.51;60.53;101907.91;5002333;28;45256;-82
2022/09/19 05:45:29;;;;;;;;;7.00;6.00;;;;;12.50;60.71;101909.66;5019771;28;45499;-82
2022/09/19 05:48:05;;;;;;;;;4.25;4.25;;;;;12.49;60.68;101907.03;5001855;28;48242;-82
2022/09/19 05:50:34;;;;;;;;;7.00;5.75;;;;;12.49;60.65;101912.31;5007261;28;45516;-81
2022/09/19 05:55:44;;;;;;;;;9.00;8.00;;;;;12.42;60.91;101921.03;5020035;28;45286;-77
2022/09/19 05:58:09;;;;;;;;;9.25;8.50;;;;;12.39;61.16;101919.25;5019323;28;45447;-77
2022/09/19 06:00:37;;;;;;;;;6.00;6.00;;;;;12.38;61.06;101916.63;5001520;28;45329;-86
2022/09/19 06:03:05;;;;;;;;;8.50;6.50;;;;;12.35;61.22;101923.66;5018732;28;45285;-78
2022/09/19 06:05:38;;;;;;;;;7.00;7.00;;;;;12.35;61.29;101918.38;5001213;28;45495;-78
2022/09/19 06:08:04;;;;;;;;;6.00;5.25;;;;;12.33;61.46;101919.22;5019355;28;46236;-80
2022/09/19 06:10:34;;;;;;;;;7.00;7.00;;;;;12.36;61.58;101933.31;5019451;28;45356;-80
2022/09/19 06:12:59;;;;;;;;;9.25;8.75;;;;;12.32;61.54;101915.72;5019513;28;45370;-81
2022/09/19 06:15:25;;;;;;;;;8.75;8.75;;;;;12.40;61.58;101931.59;5019542;28;45418;-80
2022/09/19 06:17:55;;;;;;;;;9.25;8.50;;;;;12.40;61.58;101938.63;5006054;28;46040;-82
2022/09/19 06:20:20;;;;;;;;;8.00;7.00;;;;;12.44;61.94;101945.72;5001145;28;45388;-80
2022/09/19 06:22:46;;;;;;;;;8.75;8.75;;;;;12.44;61.45;101943.97;5019722;28;45447;-83
2022/09/19 06:25:13;;;;;;;;;9.00;6.75;;;;;12.40;61.44;101941.28;5001459;28;45542;-83
2022/09/19 06:27:39;;;;;;;;;7.75;7.75;;;;;12.44;61.63;101945.72;5001406;28;48196;-81
2022/09/19 06:30:05;;;;;;;;;9.25;8.00;;;;;12.43;61.76;101949.22;5001459;28;45921;-82
2022/09/19 06:32:31;;;;;;;;;9.75;7.50;;;;;12.39;61.69;101956.25;5001603;28;45350;-84
2022/09/19 06:34:56;;;;;;;;;8.50;8.50;;;;;12.42;61.78;101961.53;5019000;28;45377;-81
2022/09/19 06:37:21;;;;;;;;;8.25;8.25;;;;;12.42;61.76;101964.19;5019128;28;45849;-81
2022/09/19 06:39:47;;;;;;;;;11.50;10.00;;;;;12.42;61.67;101963.31;5001058;28;45532;-80
2022/09/19 06:42:13;;;;;;;;;8.00;8.00;;;;;12.39;61.68;101964.16;5001145;28;45338;-81
2022/09/19 06:44:38;;;;;;;;;7.50;7.50;;;;;12.38;61.81;101969.44;5019160;28;45383;-79
2022/09/19 06:47:05;;;;;;;;;10.00;8.25;;;;;12.41;61.78;101974.75;5018277;28;45631;-80
2022/09/19 06:49:31;;;;;;;;;13.25;7.00;;;;;12.43;61.93;101970.34;5018849;28;45426;-79
2022/09/19 06:51:57;;;;;;;;;8.25;8.25;;;;;12.43;61.87;101975.63;5018600;28;45416;-83
2022/09/19 06:54:23;;;;;;;;;8.25;8.00;;;;;12.44;62.17;101978.28;5018957;28;45351;-84
2022/09/19 06:56:49;;;;;;;;;8.25;7.50;;;;;12.45;61.98;101976.53;5001002;28;48237;-84
2022/09/19 06:59:17;;;;;;;;;10.00;8.75;;;;;12.51;62.28;101982.75;5019037;28;45447;-83
2022/09/19 07:01:45;;;;;;;;;12.00;12.00;;;;;12.54;62.06;101988.06;5006156;28;45368;-82
2022/09/19 07:04:11;;;;;;;;;7.75;7.00;;;;;12.56;62.42;101988.97;5000970;28;45444;-84
2022/09/19 07:06:36;;;;;;;;;9.00;8.75;;;;;12.57;62.13;101984.56;5022081;28;45433;-85
2022/09/19 07:09:04;;;;;;;;;9.00;8.50;;;;;12.67;62.23;101993.44;5005661;28;45316;-82
2022/09/19 07:11:30;;;;;;;;;2.25;2.00;;;;;12.64;62.01;101981.09;5004980;28;45330;-85
2022/09/19 07:13:56;;;;;;;;;12.50;12.50;;;;;12.77;62.21;101998.78;5004747;28;45517;-84
2022/09/19 07:16:21;;;;;;;;;8.75;8.75;;;;;12.81;61.84;102002.38;5022329;28;46125;-83
2022/09/19 07:18:46;;;;;;;;;8.00;7.75;;;;;12.83;62.00;101998.00;5004340;28;45254;-85
2022/09/19 07:21:12;;;;;;;;;9.75;9.00;;;;;12.91;61.64;102005.94;5004561;28;45325;-86
2022/09/19 07:23:37;;;;;;;;;8.25;8.25;;;;;12.95;61.78;102007.75;5004533;28;45384;-84
2022/09/19 07:26:03;;;;;;;;;7.50;7.50;;;;;12.93;61.85;102005.09;5003842;28;46736;-87
2022/09/19 07:28:29;;;;;;;;;9.50;9.50;;;;;12.95;61.55;102000.69;5021599;28;45454;-87
2022/09/19 07:30:58;;;;;;;;;11.50;11.25;;;;;13.05;61.94;102020.16;5003864;28;45360;-83
2022/09/19 07:33:23;;;;;;;;;7.75;6.50;;;;;13.08;61.43;102014.88;5003273;28;45558;-83
2022/09/19 07:35:51;;;;;;;;;11.75;9.50;;;;;13.14;61.50;102011.41;4999847;28;47516;-83
2022/09/19 07:38:18;;;;;;;;;9.25;8.50;;;;;13.18;61.37;102010.56;4999674;28;45325;-84
2022/09/19 07:40:45;;;;;;;;;8.00;8.00;;;;;13.21;61.34;102005.28;5001611;28;45308;-85
2022/09/19 07:43:16;;;;;;;;;11.00;8.00;;;;;13.27;61.65;102013.28;5001995;28;45574;-86
2022/09/19 07:45:44;;;;;;;;;7.00;7.00;;;;;13.39;61.42;102013.34;5000154;28;47346;-87
2022/09/19 07:48:10;;;;;;;;;5.75;5.75;;;;;13.41;61.06;102011.56;5001548;28;45426;-83
2022/09/19 07:50:36;;;;;;;;;8.50;8.50;;;;;13.46;61.25;102012.47;5001920;28;45493;-85
2022/09/19 07:53:04;;;;;;;;;6.75;6.75;;;;;13.57;60.99;102025.75;5001863;28;45477;-85
2022/09/19 07:55:33;;;;;;;;;8.00;8.00;;;;;13.61;60.97;102021.38;5001585;28;46708;-86
2022/09/19 07:57:59;;;;;;;;;9.25;8.00;;;;;13.70;60.89;102028.47;5000098;28;45350;-84
2022/09/19 08:00:27;;;;;;;;;7.75;7.25;;;;;13.76;60.83;102028.47;5000449;28;45475;-87
2022/09/19 08:02:58;;;;;;;;;10.25;9.00;;;;;13.83;60.62;102028.50;5000996;28;45575;-83
2022/09/19 08:05:24;;;;;;;;;5.75;5.25;;;;;13.90;60.82;102029.44;5001293;28;45757;-82
2022/09/19 08:07:51;;;;;;;;;7.00;6.75;;;;;13.96;60.37;102031.22;5001215;28;45929;-83
2022/09/19 08:10:17;;;;;;;;;6.25;6.25;;;;;14.05;60.05;102032.09;5001678;28;45296;-84
2022/09/19 08:12:47;;;;;;;;;5.00;5.00;;;;;14.13;60.10;102024.19;5002185;28;45424;-83
2022/09/19 08:15:16;;;;;;;;;5.25;4.50;;;;;14.22;59.81;102034.81;5001563;28;46944;-81
2022/09/19 08:18:06;;;;;;;;;6.00;5.75;;;;;14.30;59.46;102032.16;5007096;28;45383;-83
2022/09/19 08:20:36;;;;;;;;;5.50;5.25;;;;;14.41;59.24;102035.72;5007263;28;45380;-81
2022/09/19 08:23:06;;;;;;;;;5.00;5.00;;;;;14.53;59.47;102030.44;5016371;28;45471;-84
2022/09/19 08:25:34;;;;;;;;;7.00;6.25;;;;;14.62;58.72;102039.28;4998797;28;47077;-82
2022/09/19 08:27:59;;;;;;;;;5.00;5.00;;;;;14.71;58.42;102042.84;5001144;28;45418;-84
2022/09/19 08:30:29;;;;;;;;;9.50;6.25;;;;;14.79;58.58;102040.19;5001220;28;45384;-85
2022/09/19 08:32:56;;;;;;;;;4.75;3.25;;;;;14.89;58.04;102043.69;5000918;28;45450;-83
2022/09/19 08:35:22;;;;;;;;;4.00;4.00;;;;;14.98;57.70;102036.63;4998996;28;47205;-83
2022/09/19 08:37:54;;;;;;;;;5.00;4.00;;;;;15.12;57.08;102044.56;5000534;28;45279;-83
2022/09/19 08:40:25;;;;;;;;;4.00;4.00;;;;;15.19;56.89;102037.50;4993720;28;45432;-83
2022/09/19 08:42:51;;;;;;;;;4.00;3.00;;;;;15.31;56.66;102039.22;4999482;28;45454;-83
2022/09/19 08:45:36;;;;;;;;;2.25;2.00;;;;;15.37;56.19;102034.81;4997731;28;46999;-82
2022/09/19 08:48:05;;;;;;;;;2.00;2.00;;;;;15.50;55.93;102040.06;4992177;28;45561;-82
2022/09/19 08:50:35;;;;;;;;;3.00;2.00;;;;;15.57;55.17;102040.03;4998293;28;45621;-81
2022/09/19 08:53:06;;;;;;;;;3.00;3.00;;;;;15.64;55.29;102035.59;4997477;28;45766;-83
2022/09/19 08:55:35;;;;;;;;;1.00;1.00;;;;;15.75;54.71;102040.91;4998003;28;47218;-83
2022/09/19 08:58:06;;;;;;;;;1.67;1.67;;;;;15.80;53.55;102039.97;4998054;28;46127;-84
2022/09/19 09:00:37;;;;;;;;;1.00;1.00;;;;;15.89;53.02;102047.00;4998933;28;45445;-82
2022/09/19 09:03:07;;;;;;;;;0.00;0.00;;;;;15.96;52.19;102042.53;4998967;28;45772;-83
2022/09/19 09:05:42;;;;;;;;;0.00;0.00;;;;;16.09;51.88;102046.91;4997707;28;45542;-82
2022/09/19 09:08:27;;;;;;;;;2.00;1.00;;;;;16.26;51.92;102055.66;4996567;28;45301;-82
2022/09/19 09:10:59;;;;;;;;;0.67;0.67;;;;;16.43;51.01;102047.56;4998258;28;45655;-82
2022/09/19 09:13:33;;;;;;;;;0.33;0.33;;;;;16.60;49.84;102059.84;4996672;28;45859;-83
2022/09/19 09:16:19;;;;;;;;;1.33;0.67;;;;;16.70;49.44;102049.13;4997869;28;45527;-83
2022/09/19 09:19:17;;;;;;;;;0.00;0.00;;;;;16.82;48.72;102060.63;4996269;28;45669;-84
2022/09/19 09:22:09;;;;;;;;;1.00;1.00;;;;;16.83;48.82;102060.59;4998068;28;45356;-84
2022/09/19 09:24:38;;;;;;;;;1.00;1.00;;;;;16.86;48.85;102060.56;4986595;28;45594;-84
2022/09/19 09:27:12;;;;;;;;;0.33;0.00;;;;;16.91;48.83;102056.09;4998973;28;46981;-84
2022/09/19 09:29:44;;;;;;;;;3.00;0.67;;;;;17.02;48.35;102057.78;4998439;28;45341;-83
2022/09/19 09:32:40;;;;;;;;;2.00;1.00;;;;;17.16;47.91;102064.75;4999989;28;45248;-83
2022/09/19 09:35:18;;;;;;;;;0.00;0.00;;;;;17.24;47.25;102048.69;4995994;28;45436;-83
2022/09/19 09:37:47;;;;;;;;;1.67;1.67;;;;;17.35;47.10;102068.09;4992479;28;46898;-82
2022/09/19 09:41:44;;;;;;;;;1.33;1.00;;;;;17.44;46.36;102063.56;4984112;28;45743;-83
2022/09/19 09:43:07;;;;;;;;;0.00;0.00;;;;;17.51;46.13;102052.84;4962945;28;45814;-80
2022/09/19 09:45:41;;;;;;;;;0.00;0.00;;;;;17.56;46.00;102061.66;4983234;28;45504;-81
2022/09/19 09:48:30;;;;;;;;;1.33;1.00;;;;;17.60;45.70;102052.72;4955157;28;46073;-79
2022/09/19 09:51:13;;;;;;;;;2.00;1.00;;;;;17.67;45.59;102045.53;4960635;28;45287;-79
2022/09/19 09:54:00;;;;;;;;;0.00;0.00;;;;;17.75;44.94;102049.00;4978969;28;45429;-79
2022/09/19 09:56:45;;;;;;;;;1.67;0.67;;;;;17.77;45.03;102048.97;4968389;28;45572;-80
2022/09/19 10:05:53;;;;;;;;;1.00;1.00;;;;;17.92;44.58;102043.47;4978436;28;45714;-80
2022/09/19 10:08:28;;;;;;;;;0.67;0.00;;;;;18.00;44.60;102049.56;4977291;28;46280;-80
2022/09/19 10:11:05;;;;;;;;;1.00;1.00;;;;;18.10;44.22;102046.81;4960573;28;47191;-79
2022/09/19 10:13:38;;;;;;;;;0.00;0.00;;;;;18.10;43.83;102046.81;4978623;28;45506;-79
2022/09/19 10:16:06;;;;;;;;;0.00;0.00;;;;;18.10;43.68;102039.69;4981096;28;45360;-82
2022/09/19 10:18:43;;;;;;;;;1.00;1.00;;;;;18.14;43.62;102032.50;4980082;28;45454;-83
2022/09/19 10:21:09;;;;;;;;;0.00;0.00;;;;;18.22;43.96;102030.63;4995013;28;47377;-85
2022/09/19 10:23:34;;;;;;;;;1.00;1.00;;;;;18.33;43.84;102035.78;4970965;28;45398;-84
2022/09/19 10:26:03;;;;;;;;;1.67;1.67;;;;;18.44;43.09;102024.06;4985976;28;45429;-84
2022/09/19 10:28:48;;;;;;;;;1.00;0.00;;;;;18.58;42.44;102033.59;4965014;28;45294;-85
2022/09/19 10:31:34;;;;;;;;;1.00;0.00;;;;;18.73;42.21;102028.00;4961910;28;47343;-86
2022/09/19 10:34:04;;;;;;;;;0.00;0.00;;;;;18.83;42.00;102036.78;4961278;28;45724;-86
2022/09/19 10:36:33;;;;;;;;;0.00;0.00;;;;;18.90;41.20;102036.66;4976119;28;45459;-85
2022/09/19 10:39:12;;;;;;;;;0.00;0.00;;;;;19.00;41.43;102048.03;4977594;28;45600;-86
2022/09/19 10:41:40;;;;;;;;;0.67;0.67;;;;;19.12;41.14;102036.28;5002934;28;47313;-90
2022/09/19 10:44:18;;;;;;;;;0.67;0.67;;;;;19.28;41.22;102031.53;4984326;28;45205;-84
2022/09/19 10:46:49;;;;;;;;;0.00;0.00;;;;;19.42;41.27;102024.09;5000482;28;45399;-86
2022/09/19 10:49:30;;;;;;;;;1.00;1.00;;;;;19.57;40.64;102021.13;4999927;28;45203;-87
2022/09/19 10:51:59;;;;;;;;;0.33;0.33;;;;;19.77;40.31;102026.06;4985227;28;47451;-86
2022/09/19 10:54:44;;;;;;;;;0.00;0.00;;;;;19.99;39.69;102025.59;4985903;28;44924;-87
2022/09/19 10:57:53;;;;;;;;;3.33;3.33;;;;;20.20;39.56;102022.44;4997604;28;45309;-85
2022/09/19 11:00:28;;;;;;;;;0.67;0.67;;;;;20.48;39.87;102022.69;4959333;28;45244;-86
2022/09/19 11:03:05;;;;;;;;;0.00;0.00;;;;;20.68;38.83;102016.84;4946684;28;47265;-87
2022/09/19 11:05:35;;;;;;;;;0.00;0.00;;;;;20.91;38.49;102018.06;4982799;28;45305;-86
2022/09/19 11:08:03;;;;;;;;;0.00;0.00;;;;;21.12;37.77;102021.97;5002804;28;45383;-87
2022/09/19 11:10:37;;;;;;;;;1.00;0.00;;;;;21.22;37.73;102020.75;4983462;28;45466;-84
2022/09/19 11:13:13;;;;;;;;;1.00;1.00;;;;;21.15;37.90;102008.50;4995877;28;47349;-87
2022/09/19 11:15:57;;;;;;;;;0.00;0.00;;;;;21.07;37.54;102014.06;5001491;28;45395;-86
2022/09/19 11:18:33;;;;;;;;;2.50;1.00;;;;;20.99;37.97;102010.69;4984237;28;45284;-86
2022/09/19 11:21:27;;;;;;;;;0.00;0.00;;;;;20.87;37.35;102019.03;5001844;28;45495;-84
2022/09/19 11:24:14;;;;;;;;;1.00;0.00;;;;;20.70;37.64;102019.50;4984449;28;47224;-84
2022/09/19 11:27:17;;;;;;;;;0.00;0.00;;;;;20.64;37.25;102019.66;5002215;28;45568;-83
2022/09/19 11:30:05;;;;;;;;;0.00;0.00;;;;;20.74;37.61;102017.59;5002853;28;45236;-85
2022/09/19 11:32:57;;;;;;;;;2.00;1.00;;;;;20.85;37.43;102016.44;4989888;28;45844;-84
2022/09/19 11:35:38;;;;;;;;;0.00;0.00;;;;;21.00;36.39;102011.56;5001039;28;45399;-85
2022/09/19 11:38:28;;;;;;;;;0.00;0.00;;;;;21.11;36.17;102022.88;5000564;28;46195;-84
2022/09/19 11:41:15;;;;;;;;;0.00;0.00;;;;;21.23;36.26;102017.19;4996366;28;45311;-85
2022/09/19 11:43:59;;;;;;;;;2.00;2.00;;;;;21.41;36.09;102015.84;5002212;28;45463;-86
2022/09/19 11:46:57;;;;;;;;;0.00;0.00;;;;;21.44;35.50;102015.75;5000309;28;45515;-85
2022/09/19 11:49:46;;;;;;;;;0.33;0.00;;;;;21.55;35.48;102008.25;4983196;28;45423;-85
2022/09/19 11:52:32;;;;;;;;;1.00;1.00;;;;;21.73;34.86;102005.94;4996079;28;45452;-86
2022/09/19 11:55:31;;;;;;;;;0.00;0.00;;;;;21.98;34.45;102001.59;5000340;28;45277;-90
2022/09/19 11:58:26;;;;;;;;;0.00;0.00;;;;;22.26;33.69;101995.38;4999243;28;47446;-87
2022/09/19 12:01:18;;;;;;;;;1.33;1.33;;;;;22.39;32.79;101993.19;4984302;28;45517;-86
2022/09/19 12:03:56;;;;;;;;;0.00;0.00;;;;;22.54;33.36;101995.34;4990452;28;45191;-87